Time;durP1;ratioP1;P1;durP2;ratioP2;P2;SDS_P1;SDS_P2;PMS_P1;PMS_P2;Temp;Humidity;BMP_temperature;BMP_pressure;BME280_temperature;BME280_humidity;BME280_pressure;Samples;Min_cycle;Max_cycle;Signal;HPM_P1;HPM_P2
2022/01/23 00:01:09;;;;;;;15.02;6.35;;;5.90;99.90;;;;;;5083548;28;20033;-72
2022/01/23 00:03:35;;;;;;;14.30;6.05;;;5.90;99.90;;;;;;5054625;28;20846;-72
2022/01/23 00:06:01;;;;;;;16.50;6.93;;;5.70;99.90;;;;;;5080648;28;20086;-72
2022/01/23 00:08:27;;;;;;;13.77;6.55;;;5.70;99.90;;;;;;5082950;28;20035;-72
2022/01/23 00:10:53;;;;;;;14.55;7.10;;;5.80;99.90;;;;;;5084618;28;20047;-71
2022/01/23 00:13:28;;;;;;;14.50;5.65;;;5.70;99.90;;;;;;5086150;28;20044;-71
2022/01/23 00:18:38;;;;;;;15.88;5.78;;;5.70;99.90;;;;;;5103027;28;20032;-71
2022/01/23 00:21:04;;;;;;;13.10;5.10;;;5.90;99.90;;;;;;5049167;28;20031;-71
2022/01/23 00:31:29;;;;;;;12.68;5.22;;;5.60;99.90;;;;;;5078501;28;20057;-71
2022/01/23 00:33:56;;;;;;;12.57;6.50;;;5.60;99.90;;;;;;5081644;28;20074;-71
2022/01/23 00:36:23;;;;;;;13.88;5.30;;;5.60;99.90;;;;;;5082611;28;21574;-71
2022/01/23 00:38:49;;;;;;;12.25;5.45;;;5.50;99.90;;;;;;5087326;28;20071;-71
2022/01/23 00:41:14;;;;;;;9.55;5.60;;;5.60;99.90;;;;;;5085681;28;20096;-71
2022/01/23 00:43:42;;;;;;;13.18;6.35;;;5.60;99.90;;;;;;5084661;28;20476;-71
2022/01/23 00:48:42;;;;;;;11.57;5.32;;;5.60;99.90;;;;;;5084366;28;20125;-71
2022/01/23 00:51:07;;;;;;;16.58;5.50;;;5.50;99.90;;;;;;5081314;28;20071;-71
2022/01/23 00:53:33;;;;;;;10.90;4.68;;;5.60;99.90;;;;;;5088036;28;20059;-71
2022/01/23 00:55:58;;;;;;;13.77;5.63;;;5.60;99.90;;;;;;5052437;28;20048;-72
2022/01/23 00:58:24;;;;;;;13.35;5.57;;;5.60;99.90;;;;;;5081708;28;20131;-71
2022/01/23 01:00:50;;;;;;;10.82;4.97;;;5.60;99.90;;;;;;5084871;28;20050;-71
2022/01/23 01:03:16;;;;;;;13.15;5.80;;;5.50;99.90;;;;;;5086043;28;20459;-71
2022/01/23 01:05:41;;;;;;;11.38;5.05;;;5.60;99.90;;;;;;5067103;28;20117;-72
2022/01/23 01:08:07;;;;;;;10.88;5.25;;;6.00;99.90;;;;;;5070980;28;20040;-71
2022/01/23 01:13:21;;;;;;;9.35;4.45;;;5.60;99.90;;;;;;5082546;28;20449;-71
2022/01/23 01:32:52;;;;;;;12.00;4.75;;;5.90;99.90;;;;;;5085867;28;20067;-71
2022/01/23 01:37:44;;;;;;;8.20;4.97;;;5.50;99.90;;;;;;5081433;28;20036;-72
2022/01/23 01:40:10;;;;;;;11.82;4.97;;;5.60;99.90;;;;;;5088008;28;20452;-71
2022/01/23 01:42:36;;;;;;;12.40;4.93;;;5.50;99.90;;;;;;5088003;28;20046;-71
2022/01/23 01:45:03;;;;;;;13.18;5.68;;;5.80;99.90;;;;;;5076838;28;20119;-71
2022/01/23 01:47:29;;;;;;;12.20;4.95;;;5.50;99.90;;;;;;5081837;28;21059;-71
2022/01/23 01:49:55;;;;;;;9.93;4.55;;;5.50;99.90;;;;;;5088245;28;20040;-71
2022/01/23 01:52:21;;;;;;;10.68;4.82;;;5.70;99.90;;;;;;5086215;28;20035;-71
2022/01/23 01:54:48;;;;;;;9.60;4.75;;;5.60;99.90;;;;;;5072916;28;20523;-71
2022/01/23 01:57:15;;;;;;;12.82;5.65;;;5.60;99.90;;;;;;5088146;28;20044;-71
2022/01/23 02:10:46;;;;;;;11.65;5.78;;;5.60;99.90;;;;;;5085912;28;20047;-71
2022/01/23 02:13:15;;;;;;;9.55;5.05;;;5.50;99.90;;;;;;5083315;28;20535;-71
2022/01/23 02:50:58;;;;;;;12.05;5.38;;;5.50;99.90;;;;;;5074926;28;20039;-71
2022/01/23 02:56:18;;;;;;;14.25;5.95;;;5.50;99.90;;;;;;5087337;28;20031;-71
2022/01/23 02:58:57;;;;;;;16.60;5.88;;;5.60;99.90;;;;;;5094307;28;20057;-71
2022/01/23 03:01:27;;;;;;;12.45;5.53;;;5.50;99.90;;;;;;5069400;28;20426;-71
2022/01/23 03:04:00;;;;;;;15.77;5.88;;;5.60;99.90;;;;;;5085679;28;20054;-71
2022/01/23 03:09:49;;;;;;;11.57;5.55;;;5.50;99.90;;;;;;5086648;28;20040;-71
2022/01/23 03:14:57;;;;;;;13.52;6.13;;;5.80;99.90;;;;;;5051265;28;20121;-71
2022/01/23 03:26:25;;;;;;;13.02;6.57;;;5.50;99.90;;;;;;5083906;28;20050;-71
2022/01/23 03:28:37;;;;;;;14.70;6.18;;;5.50;99.90;;;;;;5075089;28;20597;-71
2022/01/23 03:31:21;;;;;;;13.20;6.20;;;6.00;99.90;;;;;;5079876;28;20035;-71
2022/01/23 03:33:47;;;;;;;13.95;5.82;;;5.60;99.90;;;;;;5079088;28;20039;-71
2022/01/23 03:36:13;;;;;;;12.65;6.63;;;5.50;99.90;;;;;;5081505;28;20115;-71
2022/01/23 03:38:39;;;;;;;12.40;5.97;;;5.60;99.90;;;;;;5088994;28;20122;-71
2022/01/23 03:41:04;;;;;;;14.73;6.38;;;5.60;99.90;;;;;;5070083;28;20092;-71
2022/01/23 03:43:33;;;;;;;13.95;6.22;;;6.40;99.90;;;;;;5090138;28;20047;-71
2022/01/23 03:51:10;;;;;;;12.25;7.47;;;5.50;99.90;;;;;;5083225;28;20051;-71
2022/01/23 03:53:37;;;;;;;14.05;6.03;;;5.50;99.90;;;;;;5080251;28;20436;-71
2022/01/23 03:56:03;;;;;;;14.13;6.03;;;6.00;99.90;;;;;;5085805;28;20031;-71
2022/01/23 03:58:29;;;;;;;8.57;5.10;;;5.60;99.90;;;;;;5086171;28;20410;-71
2022/01/23 04:00:55;;;;;;;11.95;5.32;;;5.50;99.90;;;;;;5084496;28;20043;-71
2022/01/23 04:03:20;;;;;;;15.23;6.32;;;5.50;99.90;;;;;;5083176;28;20346;-71
2022/01/23 04:05:47;;;;;;;15.18;5.85;;;5.50;99.90;;;;;;5077186;28;22279;-72
2022/01/23 04:08:15;;;;;;;17.80;6.68;;;5.50;99.90;;;;;;5087149;28;20616;-71
2022/01/23 04:10:41;;;;;;;12.75;5.53;;;5.50;99.90;;;;;;5081831;28;20048;-71
2022/01/23 04:13:35;;;;;;;13.60;6.20;;;6.20;99.90;;;;;;5063429;28;20039;-71
2022/01/23 04:34:38;;;;;;;11.90;6.50;;;5.50;99.90;;;;;;5087423;28;20044;-71
2022/01/23 04:45:24;;;;;;;11.55;5.93;;;5.50;99.90;;;;;;5085843;28;20113;-71
2022/01/23 05:04:30;;;;;;;14.15;5.53;;;5.50;99.90;;;;;;5073729;28;20062;-71
2022/01/23 05:09:25;;;;;;;10.52;4.75;;;5.60;99.90;;;;;;5078137;28;20054;-71
2022/01/23 05:12:13;;;;;;;7.45;4.45;;;5.50;99.90;;;;;;5085268;28;20152;-71
2022/01/23 05:14:43;;;;;;;12.98;5.82;;;5.60;99.90;;;;;;5091956;28;20052;-71
2022/01/23 05:17:13;;;;;;;11.20;5.32;;;3.80;99.90;;;;;;5086702;28;20044;-71
2022/01/23 05:19:39;;;;;;;7.78;5.03;;;5.50;99.90;;;;;;5102632;27;20494;-71
2022/01/23 05:22:23;;;;;;;9.35;4.88;;;5.60;99.90;;;;;;5086467;28;20047;-71
2022/01/23 05:25:03;;;;;;;9.82;5.47;;;5.60;99.90;;;;;;5085303;28;20067;-71
2022/01/23 05:27:31;;;;;;;9.43;4.82;;;5.60;99.90;;;;;;5090936;28;20402;-72
2022/01/23 05:29:58;;;;;;;11.05;5.57;;;5.60;99.90;;;;;;5066317;28;20047;-71
2022/01/23 05:32:26;;;;;;;9.10;6.10;;;5.60;99.90;;;;;;5084899;28;20044;-71
2022/01/23 05:34:52;;;;;;;10.88;6.07;;;5.60;99.90;;;;;;5089473;28;20036;-71
2022/01/23 05:37:18;;;;;;;15.07;5.85;;;5.60;99.90;;;;;;5059064;28;20422;-72
2022/01/23 05:39:43;;;;;;;8.48;4.70;;;5.60;99.90;;;;;;5090840;28;20079;-71
2022/01/23 05:42:09;;;;;;;11.60;5.90;;;5.90;99.90;;;;;;5089538;28;20042;-71
2022/01/23 05:44:37;;;;;;;13.90;6.00;;;5.50;99.90;;;;;;5088402;28;20104;-72
2022/01/23 05:47:04;;;;;;;13.93;6.80;;;5.60;99.90;;;;;;5083458;28;20049;-71
2022/01/23 05:49:30;;;;;;;8.38;5.40;;;5.50;99.90;;;;;;5091227;28;20052;-71
2022/01/23 05:51:56;;;;;;;10.40;6.00;;;5.50;99.90;;;;;;5085777;28;20062;-71
2022/01/23 05:54:21;;;;;;;10.57;5.60;;;5.50;99.90;;;;;;5089683;28;20124;-72
2022/01/23 05:56:47;;;;;;;11.85;5.57;;;5.50;99.90;;;;;;5086204;28;20031;-72
2022/01/23 05:59:13;;;;;;;12.07;5.00;;;5.50;99.90;;;;;;5076478;28;20040;-71
2022/01/23 06:01:39;;;;;;;13.18;6.07;;;5.90;99.90;;;;;;5066767;28;20046;-72
2022/01/23 06:04:05;;;;;;;12.07;5.90;;;6.30;99.90;;;;;;5085751;28;20035;-71
2022/01/23 06:06:30;;;;;;;12.27;6.50;;;5.50;99.90;;;;;;5104333;28;20047;-71
2022/01/23 06:08:56;;;;;;;9.90;5.80;;;5.50;99.90;;;;;;5070533;28;20032;-71
2022/01/23 06:11:22;;;;;;;12.60;6.18;;;5.80;99.90;;;;;;5074906;28;20109;-71
2022/01/23 06:13:48;;;;;;;13.27;7.35;;;5.50;99.90;;;;;;5087167;28;20418;-71
2022/01/23 06:16:13;;;;;;;14.32;6.15;;;5.60;99.90;;;;;;5072436;28;20062;-71
2022/01/23 06:18:41;;;;;;;14.50;6.55;;;6.20;99.90;;;;;;5088258;28;20039;-71
2022/01/23 06:21:07;;;;;;;9.27;5.57;;;6.30;99.90;;;;;;5069572;28;20051;-71
2022/01/23 06:23:33;;;;;;;10.73;5.38;;;5.50;99.90;;;;;;5065655;28;20308;-71
2022/01/23 06:25:59;;;;;;;12.27;5.55;;;5.60;99.90;;;;;;5075422;28;20182;-71
2022/01/23 06:28:48;;;;;;;10.73;6.57;;;5.50;99.90;;;;;;5084041;28;20058;-71
2022/01/23 06:31:13;;;;;;;11.52;6.22;;;5.60;99.90;;;;;;5080363;28;20099;-71
2022/01/23 06:33:39;;;;;;;8.48;6.32;;;5.50;99.90;;;;;;5062080;28;20036;-71
2022/01/23 06:36:05;;;;;;;13.10;6.03;;;5.50;99.90;;;;;;5081277;28;20391;-71
2022/01/23 06:38:30;;;;;;;11.95;6.10;;;5.80;99.90;;;;;;5073064;28;20464;-71
2022/01/23 06:40:56;;;;;;;10.50;6.03;;;5.50;99.90;;;;;;5108470;28;20038;-71
2022/01/23 06:43:22;;;;;;;11.35;6.10;;;5.50;99.90;;;;;;5089252;28;20126;-71
2022/01/23 06:45:48;;;;;;;12.57;5.70;;;5.50;99.90;;;;;;5089119;28;20043;-71
2022/01/23 06:48:13;;;;;;;12.02;6.10;;;6.30;99.90;;;;;;5083590;28;20090;-71
2022/01/23 06:50:39;;;;;;;14.55;6.45;;;6.30;99.90;;;;;;5061656;28;20415;-71
2022/01/23 06:53:05;;;;;;;16.90;7.28;;;5.50;99.90;;;;;;5082363;28;20637;-71
2022/01/23 06:55:31;;;;;;;12.70;6.47;;;5.50;99.90;;;;;;5084588;28;20048;-71
2022/01/23 06:57:56;;;;;;;12.63;6.57;;;5.50;99.90;;;;;;5085602;28;20035;-71
2022/01/23 07:00:22;;;;;;;12.57;6.55;;;5.50;99.90;;;;;;5071603;28;20112;-71
2022/01/23 07:02:48;;;;;;;11.35;5.55;;;5.50;99.90;;;;;;5081836;28;20176;-71
2022/01/23 07:05:13;;;;;;;9.40;6.00;;;5.50;99.90;;;;;;5084205;28;20142;-71
2022/01/23 07:07:39;;;;;;;14.02;6.72;;;5.50;99.90;;;;;;5064408;28;20078;-71
2022/01/23 07:10:06;;;;;;;8.82;6.22;;;5.50;99.90;;;;;;5082828;28;20182;-71
2022/01/23 07:12:31;;;;;;;12.43;6.63;;;5.50;99.90;;;;;;5085340;28;20047;-71
2022/01/23 07:14:58;;;;;;;10.57;5.63;;;5.50;99.90;;;;;;5063869;28;20043;-71
2022/01/23 07:17:23;;;;;;;13.25;7.07;;;5.50;99.90;;;;;;5083351;28;20114;-71
2022/01/23 07:19:49;;;;;;;16.80;7.28;;;5.50;99.90;;;;;;5076560;28;20471;-71
2022/01/23 07:22:15;;;;;;;12.30;6.15;;;6.30;99.90;;;;;;5083995;28;20512;-71
2022/01/23 07:24:40;;;;;;;10.35;6.40;;;5.40;99.90;;;;;;5081932;28;20480;-70
2022/01/23 07:27:15;;;;;;;10.80;6.20;;;5.50;99.90;;;;;;5082635;28;20092;-71
2022/01/23 07:29:42;;;;;;;12.13;6.63;;;5.50;99.90;;;;;;5079114;28;20072;-71
2022/01/23 07:32:09;;;;;;;10.05;6.53;;;5.40;99.90;;;;;;5082580;28;20093;-71
2022/01/23 07:34:35;;;;;;;15.32;6.90;;;5.40;99.90;;;;;;5079404;28;20120;-71
2022/01/23 07:37:01;;;;;;;11.10;6.82;;;5.50;99.90;;;;;;5081741;28;20040;-71
2022/01/23 07:39:26;;;;;;;13.35;6.85;;;5.50;99.90;;;;;;5063954;28;20036;-72
2022/01/23 07:41:53;;;;;;;15.18;6.72;;;5.40;99.90;;;;;;5078749;28;20088;-71
2022/01/23 07:44:18;;;;;;;14.82;6.70;;;5.50;99.90;;;;;;5083631;28;20039;-72
2022/01/23 07:46:44;;;;;;;12.00;6.25;;;6.00;99.90;;;;;;5087166;28;20039;-72
2022/01/23 07:49:10;;;;;;;11.82;6.00;;;5.90;99.90;;;;;;5087919;28;20039;-72
2022/01/23 07:51:36;;;;;;;10.52;5.50;;;5.70;99.90;;;;;;5081325;28;20514;-72
2022/01/23 07:54:03;;;;;;;10.95;6.63;;;5.50;99.90;;;;;;5080479;28;20093;-72
2022/01/23 07:56:28;;;;;;;10.18;5.38;;;5.50;99.90;;;;;;5085698;28;20036;-72
2022/01/23 07:58:54;;;;;;;10.32;5.95;;;5.50;99.90;;;;;;5081380;28;20035;-72
2022/01/23 08:01:20;;;;;;;8.60;5.40;;;5.50;99.90;;;;;;5080221;28;20444;-71
2022/01/23 08:03:46;;;;;;;8.45;5.50;;;5.50;99.90;;;;;;5082422;28;20062;-70
2022/01/23 08:06:12;;;;;;;9.63;4.88;;;5.50;99.90;;;;;;5083813;28;20028;-71
2022/01/23 08:08:38;;;;;;;11.55;5.65;;;5.50;99.90;;;;;;5086646;28;20074;-71
2022/01/23 08:11:05;;;;;;;11.27;5.82;;;5.50;99.90;;;;;;5083262;28;20066;-71
2022/01/23 08:13:31;;;;;;;10.45;5.32;;;5.60;99.90;;;;;;5083570;28;20040;-71
2022/01/23 08:15:57;;;;;;;8.00;5.10;;;6.30;99.90;;;;;;5067798;28;20059;-71
2022/01/23 08:18:22;;;;;;;10.18;5.18;;;5.70;99.90;;;;;;5084314;28;20031;-71
2022/01/23 08:20:48;;;;;;;9.88;5.60;;;5.80;99.90;;;;;;5082312;28;20032;-71
2022/01/23 08:23:14;;;;;;;8.82;4.70;;;5.60;99.90;;;;;;5088245;28;20114;-71
2022/01/23 08:25:40;;;;;;;6.90;4.57;;;5.70;99.90;;;;;;5088740;28;20468;-71
2022/01/23 08:28:07;;;;;;;7.15;4.47;;;5.60;99.90;;;;;;5083506;28;20499;-71
2022/01/23 08:30:33;;;;;;;6.63;4.45;;;5.80;99.90;;;;;;5090522;28;20044;-71
2022/01/23 08:32:59;;;;;;;9.15;4.60;;;5.70;99.90;;;;;;5067185;28;20036;-71
2022/01/23 08:35:26;;;;;;;8.90;4.65;;;5.80;99.90;;;;;;5070884;28;20181;-71
2022/01/23 08:37:52;;;;;;;8.40;4.78;;;5.70;99.90;;;;;;5087366;28;20084;-71
2022/01/23 08:40:23;;;;;;;8.32;4.40;;;5.80;99.90;;;;;;5084382;28;20043;-71
2022/01/23 08:42:51;;;;;;;9.23;4.72;;;5.80;99.90;;;;;;5065158;28;20040;-72
2022/01/23 08:45:18;;;;;;;7.80;4.43;;;5.80;99.90;;;;;;5080846;28;20067;-71
2022/01/23 08:47:43;;;;;;;6.68;4.47;;;5.80;99.90;;;;;;5089889;28;20095;-71
2022/01/23 08:50:09;;;;;;;7.85;4.63;;;5.90;99.90;;;;;;5082374;28;20028;-71
2022/01/23 08:52:35;;;;;;;6.68;4.13;;;6.50;99.90;;;;;;5087899;28;20051;-72
2022/01/23 08:55:01;;;;;;;7.15;4.50;;;5.90;99.90;;;;;;5104407;28;20312;-71
2022/01/23 08:57:27;;;;;;;6.38;3.97;;;5.90;99.90;;;;;;5079187;28;20032;-71
2022/01/23 08:59:53;;;;;;;7.90;4.00;;;5.90;99.90;;;;;;5084479;28;20494;-72
2022/01/23 09:02:19;;;;;;;7.63;4.05;;;6.00;99.90;;;;;;5091885;28;20042;-71
2022/01/23 09:04:45;;;;;;;5.80;3.70;;;5.70;99.90;;;;;;5075032;28;20075;-72
2022/01/23 09:07:12;;;;;;;6.43;4.03;;;6.10;99.90;;;;;;5086485;28;20040;-72
2022/01/23 09:09:39;;;;;;;5.45;3.47;;;6.10;99.90;;;;;;5085006;28;20035;-72
2022/01/23 09:12:21;;;;;;;7.18;3.67;;;6.10;99.90;;;;;;5067463;28;20461;-72
2022/01/23 09:14:47;;;;;;;5.30;3.00;;;6.20;99.90;;;;;;5081607;28;20124;-72
2022/01/23 09:17:12;;;;;;;7.13;2.90;;;6.20;99.90;;;;;;5085177;28;20127;-72
2022/01/23 09:19:39;;;;;;;4.90;2.60;;;6.30;99.90;;;;;;5089192;28;20036;-72
2022/01/23 09:22:05;;;;;;;4.38;2.33;;;6.30;99.90;;;;;;5087879;28;20072;-72
2022/01/23 09:24:31;;;;;;;4.25;2.47;;;6.30;99.90;;;;;;5087041;28;20043;-72
2022/01/23 09:27:04;;;;;;;3.15;1.95;;;6.40;99.90;;;;;;5086032;28;20048;-72
2022/01/23 09:29:36;;;;;;;5.70;2.30;;;6.60;99.90;;;;;;5089456;28;20047;-72
2022/01/23 09:32:05;;;;;;;3.78;2.00;;;6.50;99.90;;;;;;5084963;28;20042;-72
2022/01/23 09:34:32;;;;;;;3.80;2.17;;;6.50;99.90;;;;;;5072247;28;20054;-72
2022/01/23 09:37:07;;;;;;;4.75;2.33;;;6.50;99.90;;;;;;5072414;28;20046;-72
2022/01/23 09:39:33;;;;;;;5.05;2.50;;;6.60;99.90;;;;;;5084878;28;20031;-71
2022/01/23 09:42:05;;;;;;;5.68;2.63;;;6.60;99.90;;;;;;5080554;28;20056;-71
2022/01/23 09:44:37;;;;;;;4.57;2.03;;;6.70;99.90;;;;;;5085566;28;20043;-71
2022/01/23 09:47:03;;;;;;;3.95;2.50;;;6.90;99.90;;;;;;5085534;28;20112;-71
2022/01/23 09:49:30;;;;;;;4.70;2.47;;;6.70;99.90;;;;;;5066105;28;20067;-71
2022/01/23 09:52:00;;;;;;;5.40;2.75;;;7.00;99.90;;;;;;5087685;28;20047;-71
2022/01/23 09:54:29;;;;;;;6.32;2.90;;;6.80;99.90;;;;;;5066362;28;20039;-71
2022/01/23 09:57:00;;;;;;;6.18;2.85;;;6.80;99.90;;;;;;5078126;28;20320;-71
2022/01/23 09:59:26;;;;;;;5.18;2.88;;;6.90;99.90;;;;;;5071064;28;20067;-71
2022/01/23 10:01:56;;;;;;;6.10;2.42;;;6.90;99.90;;;;;;5087248;28;20039;-71
2022/01/23 10:04:22;;;;;;;4.18;2.60;;;6.90;99.90;;;;;;5088533;28;20040;-71
2022/01/23 10:06:48;;;;;;;4.22;2.00;;;6.90;99.90;;;;;;5070608;28;20183;-71
2022/01/23 10:09:14;;;;;;;3.28;2.03;;;6.90;99.90;;;;;;5089325;28;20074;-71
2022/01/23 10:11:42;;;;;;;4.25;2.05;;;7.00;99.90;;;;;;5085540;28;20039;-71
2022/01/23 10:14:09;;;;;;;3.75;1.90;;;7.00;99.90;;;;;;5086933;28;20076;-71
2022/01/23 10:16:35;;;;;;;3.65;1.65;;;7.10;99.90;;;;;;5088148;28;20138;-71
2022/01/23 10:19:01;;;;;;;2.58;1.42;;;7.10;99.90;;;;;;5067404;28;20122;-71
2022/01/23 10:21:31;;;;;;;1.98;1.15;;;7.10;99.90;;;;;;5087403;28;20098;-71
2022/01/23 10:23:57;;;;;;;2.10;1.30;;;7.10;99.90;;;;;;5087285;28;20409;-71
2022/01/23 10:26:51;;;;;;;3.03;1.05;;;7.20;99.90;;;;;;5084513;28;20058;-72
2022/01/23 10:29:24;;;;;;;2.95;1.83;;;7.20;99.90;;;;;;5099090;28;20044;-72
2022/01/23 10:32:19;;;;;;;3.33;1.80;;;7.60;99.90;;;;;;5084592;28;20039;-71
2022/01/23 10:34:47;;;;;;;2.63;1.30;;;7.30;99.90;;;;;;5073093;28;20495;-71
2022/01/23 10:37:27;;;;;;;2.25;1.08;;;7.30;99.90;;;;;;5080171;28;20463;-71
2022/01/23 10:39:53;;;;;;;1.38;0.88;;;7.30;99.90;;;;;;5104339;28;20047;-71
2022/01/23 10:47:52;;;;;;;3.45;1.58;;;7.30;99.90;;;;;;5079250;28;20054;-71
2022/01/23 10:50:22;;;;;;;1.33;0.70;;;7.40;99.90;;;;;;5060499;28;20109;-71
2022/01/23 10:52:50;;;;;;;1.60;0.88;;;7.40;99.90;;;;;;5096632;28;20044;-71
2022/01/23 10:55:35;;;;;;;1.85;0.73;;;7.40;99.90;;;;;;5081637;28;20046;-71
2022/01/23 10:58:06;;;;;;;0.50;0.30;;;7.40;99.90;;;;;;5068487;28;20399;-71
2022/01/23 11:00:34;;;;;;;0.40;0.40;;;7.40;99.90;;;;;;5084788;28;20066;-71
2022/01/23 11:03:22;;;;;;;2.45;0.40;;;8.20;99.90;;;;;;5089866;28;20098;-71
2022/01/23 11:05:49;;;;;;;2.05;0.75;;;7.40;99.90;;;;;;5081841;28;20036;-71
2022/01/23 11:08:23;;;;;;;2.03;1.27;;;7.40;99.90;;;;;;5053683;28;20528;-72
2022/01/23 11:11:02;;;;;;;1.60;0.73;;;7.40;99.90;;;;;;5085432;28;20076;-72
2022/01/23 11:19:23;;;;;;;1.75;0.65;;;7.40;99.90;;;;;;5082622;28;20415;-71
2022/01/23 11:21:52;;;;;;;2.40;1.48;;;7.20;99.90;;;;;;5085260;28;20460;-71
2022/01/23 11:24:18;;;;;;;1.95;1.52;;;7.20;99.90;;;;;;5074234;28;20082;-71
2022/01/23 11:26:44;;;;;;;2.92;1.65;;;7.20;99.90;;;;;;5055978;28;20567;-71
2022/01/23 11:29:19;;;;;;;2.63;0.90;;;7.10;99.90;;;;;;5116220;27;1277552;-71
2022/01/23 11:31:45;;;;;;;2.65;1.08;;;7.10;99.90;;;;;;5140266;27;20403;-71
2022/01/23 11:34:13;;;;;;;1.85;1.05;;;7.10;99.90;;;;;;5140265;27;20039;-71
2022/01/23 11:36:40;;;;;;;3.05;1.30;;;7.10;99.90;;;;;;5138147;27;20319;-70
2022/01/23 11:39:15;;;;;;;3.90;1.50;;;7.10;99.90;;;;;;5133387;27;20584;-70
2022/01/23 11:56:26;;;;;;;3.15;1.67;;;7.00;99.90;;;;;;5138036;27;20043;-72
2022/01/23 11:59:29;;;;;;;1.10;0.57;;;7.30;99.90;;;;;;5157477;27;20053;-69
2022/01/23 12:02:23;;;;;;;1.55;0.95;;;6.90;99.90;;;;;;5131626;27;20031;-70
2022/01/23 12:05:15;;;;;;;1.13;0.60;;;7.00;99.90;;;;;;5122027;27;20130;-69
2022/01/23 12:07:43;;;;;;;1.55;0.70;;;7.00;99.90;;;;;;5119160;27;20095;-70
2022/01/23 12:10:14;;;;;;;0.70;0.60;;;7.00;99.90;;;;;;5122600;27;20047;-70
2022/01/23 12:12:44;;;;;;;1.73;0.70;;;7.10;99.90;;;;;;5114142;27;20518;-70
2022/01/23 12:18:21;;;;;;;0.85;0.30;;;7.10;99.90;;;;;;5137718;27;20133;-69
2022/01/23 12:20:50;;;;;;;2.15;0.80;;;7.20;99.90;;;;;;5121295;27;20031;-70
2022/01/23 12:23:16;;;;;;;0.30;0.30;;;7.20;99.90;;;;;;5117867;27;20046;-70
2022/01/23 12:25:48;;;;;;;0.68;0.30;;;7.20;99.90;;;;;;5115372;27;20101;-71
2022/01/23 12:28:28;;;;;;;0.75;0.50;;;7.40;99.90;;;;;;5118585;27;20047;-70
2022/01/23 12:31:13;;;;;;;2.00;0.95;;;7.20;99.90;;;;;;5139638;27;20047;-69
2022/01/23 12:33:39;;;;;;;1.48;1.00;;;7.20;99.90;;;;;;5124523;27;20091;-70
2022/01/23 12:36:23;;;;;;;3.17;1.13;;;7.20;99.90;;;;;;5125851;27;20038;-70
2022/01/23 12:38:53;;;;;;;2.60;0.90;;;7.20;99.90;;;;;;5095293;27;20095;-70
2022/01/23 12:41:33;;;;;;;2.25;1.17;;;7.20;99.90;;;;;;5100981;27;20039;-71
2022/01/23 12:44:29;;;;;;;1.50;1.08;;;7.20;99.90;;;;;;5097619;27;20130;-70
2022/01/23 12:46:59;;;;;;;2.72;1.08;;;7.20;99.90;;;;;;5100240;27;20047;-70
2022/01/23 12:49:26;;;;;;;1.83;0.98;;;7.20;99.90;;;;;;5119960;27;20067;-69
2022/01/23 12:52:08;;;;;;;1.10;0.80;;;7.20;99.90;;;;;;5106272;27;21444;-69
2022/01/23 12:54:50;;;;;;;1.67;1.10;;;7.20;99.90;;;;;;5103651;27;20036;-70
2022/01/23 12:57:17;;;;;;;1.63;1.20;;;7.20;99.90;;;;;;5101984;27;20404;-70
2022/01/23 12:59:51;;;;;;;1.70;0.73;;;7.20;99.90;;;;;;5110496;27;20376;-70
2022/01/23 13:02:19;;;;;;;2.30;1.30;;;7.80;99.90;;;;;;5104781;27;20035;-70
2022/01/23 13:04:51;;;;;;;2.13;1.10;;;7.20;99.90;;;;;;5103776;27;20063;-70
2022/01/23 13:07:48;;;;;;;1.73;0.70;;;7.70;99.90;;;;;;5107343;27;20035;-70
2022/01/23 13:12:56;;;;;;;4.43;1.33;;;7.40;99.90;;;;;;5103529;27;20431;-70
2022/01/23 13:19:21;;;;;;;1.90;0.93;;;7.20;99.90;;;;;;5106668;27;20115;-70
2022/01/23 13:32:39;;;;;;;2.55;0.90;;;7.30;99.90;;;;;;5107894;27;20051;-70
2022/01/23 13:35:10;;;;;;;1.40;0.80;;;7.20;99.90;;;;;;5105138;27;20095;-69
2022/01/23 13:37:47;;;;;;;1.63;0.90;;;7.20;99.90;;;;;;5105399;27;20502;-70
2022/01/23 13:40:26;;;;;;;3.38;1.25;;;7.20;99.90;;;;;;5087678;27;20118;-69
2022/01/23 13:59:14;;;;;;;2.00;1.20;;;7.10;99.90;;;;;;5099458;27;20071;-70
2022/01/23 14:04:17;;;;;;;2.88;1.50;;;7.10;99.90;;;;;;5104472;27;20051;-70
2022/01/23 14:06:45;;;;;;;2.92;1.58;;;7.90;99.90;;;;;;5104041;27;20043;-70
2022/01/23 14:09:12;;;;;;;1.88;1.02;;;7.10;99.90;;;;;;5105335;27;20079;-70
2022/01/23 14:11:39;;;;;;;2.20;1.02;;;7.00;99.90;;;;;;5101627;27;20724;-70
2022/01/23 14:14:13;;;;;;;2.30;1.15;;;7.80;99.90;;;;;;5106504;27;21882;-70
2022/01/23 14:16:40;;;;;;;2.15;1.25;;;7.00;99.90;;;;;;5097301;27;20161;-69
2022/01/23 14:19:23;;;;;;;1.92;1.17;;;7.00;99.90;;;;;;5098650;27;20411;-69
2022/01/23 14:22:00;;;;;;;2.08;1.02;;;7.00;99.90;;;;;;5098871;27;20079;-69
2022/01/23 14:24:27;;;;;;;2.78;1.08;;;7.00;99.90;;;;;;5112069;27;20039;-69
2022/01/23 14:27:11;;;;;;;1.77;0.95;;;6.90;99.90;;;;;;5103533;27;20066;-69
2022/01/23 14:29:55;;;;;;;1.65;1.30;;;6.90;99.90;;;;;;5099636;27;20043;-69
2022/01/23 14:32:34;;;;;;;2.45;1.20;;;7.10;99.90;;;;;;5103564;27;20671;-69
2022/01/23 14:35:11;;;;;;;1.98;1.13;;;6.90;99.90;;;;;;5106596;27;20067;-71
2022/01/23 14:37:37;;;;;;;3.15;1.15;;;6.90;99.90;;;;;;5104109;27;20513;-71
2022/01/23 14:40:10;;;;;;;2.88;1.02;;;6.90;99.90;;;;;;5100166;27;20044;-68
2022/01/23 14:42:36;;;;;;;3.95;1.08;;;6.80;99.90;;;;;;5099335;27;20071;-68
2022/01/23 14:45:09;;;;;;;2.42;1.10;;;7.20;99.90;;;;;;5106315;27;20550;-69
2022/01/23 14:47:39;;;;;;;1.73;0.90;;;6.80;99.90;;;;;;5104886;27;20035;-70
2022/01/23 14:50:10;;;;;;;1.17;0.88;;;6.90;99.90;;;;;;5103069;27;20122;-71
2022/01/23 14:52:38;;;;;;;3.13;0.80;;;7.50;99.90;;;;;;5106661;27;20487;-70
2022/01/23 14:55:04;;;;;;;1.88;1.10;;;6.80;99.90;;;;;;5096450;28;20122;-70
2022/01/23 14:57:32;;;;;;;2.00;1.02;;;6.80;99.90;;;;;;5101640;27;20055;-69
2022/01/23 14:59:59;;;;;;;3.33;0.98;;;6.80;99.90;;;;;;5110178;27;20082;-70
2022/01/23 15:02:25;;;;;;;2.45;1.00;;;6.80;99.90;;;;;;5120344;27;20697;-69
2022/01/23 15:04:51;;;;;;;2.08;1.00;;;6.70;99.90;;;;;;5098152;27;20088;-71
2022/01/23 15:07:18;;;;;;;1.42;0.80;;;7.10;99.90;;;;;;5103878;27;20487;-72
2022/01/23 15:09:50;;;;;;;1.52;0.70;;;6.70;99.90;;;;;;5090924;27;20095;-72
2022/01/23 15:12:17;;;;;;;1.00;0.70;;;6.70;99.90;;;;;;5106031;27;20082;-70
2022/01/23 15:14:43;;;;;;;0.90;0.70;;;6.70;99.90;;;;;;5112576;27;20034;-69
2022/01/23 15:17:09;;;;;;;1.30;0.85;;;6.80;99.90;;;;;;5084999;27;20410;-71
2022/01/23 15:19:35;;;;;;;0.90;0.57;;;6.60;99.90;;;;;;5107161;27;20031;-69
2022/01/23 15:22:02;;;;;;;1.90;0.82;;;7.50;99.90;;;;;;5090970;27;20032;-69
2022/01/23 15:24:28;;;;;;;1.38;0.80;;;6.60;99.90;;;;;;5088442;27;20046;-70
2022/01/23 15:26:54;;;;;;;1.88;0.98;;;6.60;99.90;;;;;;5102804;27;20040;-71
2022/01/23 15:29:20;;;;;;;1.92;1.05;;;6.60;99.90;;;;;;5107251;28;20050;-71
2022/01/23 15:31:47;;;;;;;1.55;0.93;;;6.60;99.90;;;;;;5102643;28;20039;-72
2022/01/23 15:34:15;;;;;;;1.08;0.80;;;6.60;99.90;;;;;;5098580;28;20120;-70
2022/01/23 15:36:42;;;;;;;1.75;1.02;;;6.60;99.90;;;;;;5087019;27;20027;-70
2022/01/23 15:39:08;;;;;;;1.65;1.05;;;6.50;99.90;;;;;;5107175;27;20078;-70
2022/01/23 15:41:34;;;;;;;1.50;0.98;;;6.60;99.90;;;;;;5087358;27;20041;-70
2022/01/23 15:44:00;;;;;;;2.83;1.33;;;6.50;99.90;;;;;;5101933;28;20036;-70
2022/01/23 15:46:26;;;;;;;3.53;1.40;;;6.50;99.90;;;;;;5092201;28;20039;-69
2022/01/23 15:48:52;;;;;;;3.72;1.27;;;6.50;99.90;;;;;;5083769;28;20039;-69
2022/01/23 15:51:17;;;;;;;2.75;1.52;;;6.50;99.90;;;;;;5107939;28;20499;-69
2022/01/23 15:53:43;;;;;;;4.05;2.28;;;6.50;99.90;;;;;;5107831;28;20042;-69
2022/01/23 15:56:09;;;;;;;6.03;3.25;;;6.50;99.90;;;;;;5086341;28;20043;-71
2022/01/23 15:58:35;;;;;;;5.35;2.85;;;6.80;99.90;;;;;;5096318;27;20071;-70
2022/01/23 16:01:00;;;;;;;5.10;2.78;;;7.20;99.90;;;;;;5086105;28;20035;-71
2022/01/23 16:03:27;;;;;;;6.20;2.95;;;6.40;99.90;;;;;;5095655;28;20046;-70
2022/01/23 16:05:54;;;;;;;8.05;4.20;;;6.40;99.90;;;;;;5107696;28;20062;-70
2022/01/23 16:08:20;;;;;;;6.30;4.95;;;6.40;99.90;;;;;;5113917;27;20047;-71
2022/01/23 16:10:46;;;;;;;6.55;3.47;;;6.40;99.90;;;;;;5100092;28;20100;-71
2022/01/23 16:13:12;;;;;;;5.45;3.58;;;6.40;99.90;;;;;;5097767;27;20046;-71
2022/01/23 16:15:38;;;;;;;6.78;3.75;;;6.40;99.90;;;;;;5086929;27;20058;-71
2022/01/23 16:18:03;;;;;;;5.65;3.42;;;6.40;99.90;;;;;;5104337;27;20395;-70
2022/01/23 16:20:29;;;;;;;4.10;2.50;;;6.40;99.90;;;;;;5107945;27;20074;-70
2022/01/23 16:22:55;;;;;;;4.35;2.58;;;6.40;99.90;;;;;;5101497;28;20090;-70
2022/01/23 16:25:22;;;;;;;5.15;2.08;;;6.40;99.90;;;;;;5106194;27;20027;-70
2022/01/23 16:27:49;;;;;;;3.92;2.25;;;6.40;99.90;;;;;;5085488;27;20047;-70
2022/01/23 16:30:18;;;;;;;5.78;2.80;;;6.30;99.90;;;;;;5090805;27;20051;-70
2022/01/23 16:32:43;;;;;;;6.05;3.35;;;6.30;99.90;;;;;;5106858;27;20748;-70
2022/01/23 16:35:12;;;;;;;5.30;2.65;;;6.40;99.90;;;;;;5106345;27;20040;-70
2022/01/23 16:37:38;;;;;;;4.38;2.97;;;6.40;99.90;;;;;;5106704;27;20039;-70